createdAt,value
2022-10-28T00:00:47.449Z,100.00
2022-10-28T00:03:56.749Z,100.00
2022-10-28T00:07:03.002Z,100.00
2022-10-28T00:10:10.291Z,100.00
2022-10-28T00:13:16.441Z,100.00
2022-10-28T00:16:25.381Z,100.00
2022-10-28T00:19:32.777Z,100.00
2022-10-28T00:22:39.051Z,100.00
2022-10-28T00:25:45.330Z,100.00
2022-10-28T00:28:53.507Z,100.00
2022-10-28T00:31:59.239Z,100.00
2022-10-28T00:35:08.144Z,100.00
2022-10-28T00:38:14.012Z,100.00
2022-10-28T00:41:24.492Z,100.00
2022-10-28T00:44:56.319Z,100.00
2022-10-28T00:48:04.403Z,100.00
2022-10-28T00:51:11.957Z,100.00
2022-10-28T00:54:19.710Z,100.00
2022-10-28T00:57:30.110Z,100.00
2022-10-28T01:00:36.499Z,100.00
2022-10-28T01:03:42.698Z,100.00
2022-10-28T01:06:50.425Z,100.00
2022-10-28T01:09:56.828Z,100.00
2022-10-28T01:13:12.812Z,100.00
2022-10-28T01:16:30.911Z,100.00
2022-10-28T01:20:02.589Z,100.00
2022-10-28T01:23:19.572Z,100.00
2022-10-28T01:26:42.102Z,100.00
2022-10-28T01:30:01.243Z,100.00
2022-10-28T01:33:15.706Z,100.00
2022-10-28T01:36:33.253Z,100.00
2022-10-28T01:39:49.652Z,100.00
2022-10-28T01:43:06.584Z,100.00
2022-10-28T01:46:18.463Z,100.00
2022-10-28T01:49:32.384Z,100.00
2022-10-28T01:52:41.765Z,100.00
2022-10-28T01:55:51.264Z,100.00
2022-10-28T01:59:00.350Z,100.00
2022-10-28T02:02:06.428Z,100.00
2022-10-28T02:05:38.811Z,100.00
2022-10-28T02:08:59.540Z,100.00
2022-10-28T02:12:30.911Z,100.00
2022-10-28T02:15:44.599Z,100.00
2022-10-28T02:19:00.617Z,100.00
2022-10-28T02:22:16.996Z,100.00
2022-10-28T02:25:27.120Z,100.00
2022-10-28T02:28:41.060Z,100.00
2022-10-28T02:31:51.847Z,100.00
2022-10-28T02:35:00.690Z,100.00
2022-10-28T02:38:12.843Z,100.00
2022-10-28T02:41:28.405Z,100.00
2022-10-28T02:44:36.730Z,100.00
2022-10-28T02:47:55.431Z,100.00
2022-10-28T02:51:07.306Z,100.00
2022-10-28T02:54:17.490Z,100.00
2022-10-28T02:57:26.672Z,100.00
2022-10-28T03:00:32.754Z,100.00
2022-10-28T03:03:39.018Z,100.00
2022-10-28T03:06:45.338Z,100.00
2022-10-28T03:09:53.125Z,100.00
2022-10-28T03:12:59.079Z,100.00
2022-10-28T03:16:05.868Z,100.00
2022-10-28T03:19:11.944Z,100.00
2022-10-28T03:22:18.142Z,100.00
2022-10-28T03:25:25.624Z,100.00
2022-10-28T03:28:31.602Z,100.00
2022-10-28T03:31:37.883Z,100.00
2022-10-28T03:34:44.186Z,100.00
2022-10-28T03:37:50.636Z,100.00
2022-10-28T03:40:58.498Z,100.00
2022-10-28T03:44:04.557Z,100.00
2022-10-28T03:47:10.914Z,100.00
2022-10-28T03:50:17.506Z,100.00
2022-10-28T03:53:27.599Z,100.00
2022-10-28T03:56:40.616Z,100.00
2022-10-28T03:59:46.747Z,100.00
2022-10-28T04:02:53.879Z,100.00
2022-10-28T04:06:00.346Z,100.00
2022-10-28T04:09:06.649Z,100.00
2022-10-28T04:12:14.433Z,100.00
2022-10-28T04:15:20.731Z,100.00
2022-10-28T04:18:27.061Z,100.00
2022-10-28T04:21:33.662Z,100.00
2022-10-28T04:24:39.955Z,100.00
2022-10-28T04:27:47.967Z,100.00
2022-10-28T04:30:54.328Z,100.00
2022-10-28T04:34:01.439Z,100.00
2022-10-28T04:37:07.841Z,100.00
2022-10-28T04:40:14.391Z,100.00
2022-10-28T04:43:22.067Z,100.00
2022-10-28T04:46:28.036Z,100.00
2022-10-28T04:49:36.652Z,100.00
2022-10-28T04:52:45.242Z,100.00
2022-10-28T04:55:51.454Z,100.00
2022-10-28T04:58:59.028Z,100.00
2022-10-28T05:02:05.213Z,100.00
2022-10-28T05:05:11.355Z,100.00
2022-10-28T05:08:17.212Z,100.00
2022-10-28T05:11:23.834Z,100.00
2022-10-28T05:14:31.606Z,100.00
2022-10-28T05:17:39.070Z,100.00
2022-10-28T05:20:45.172Z,100.00
2022-10-28T05:23:51.081Z,100.00
2022-10-28T05:26:57.541Z,100.00
2022-10-28T05:30:06.282Z,100.00
2022-10-28T05:33:12.984Z,100.00
2022-10-28T05:36:19.083Z,100.00
2022-10-28T05:39:25.370Z,100.00
2022-10-28T05:42:31.816Z,100.00
2022-10-28T05:45:39.491Z,100.00
2022-10-28T05:48:45.738Z,100.00
2022-10-28T05:51:52.034Z,100.00
2022-10-28T05:54:58.378Z,100.00
2022-10-28T05:58:04.583Z,100.00
2022-10-28T06:01:12.485Z,100.00
2022-10-28T06:04:18.553Z,100.00
2022-10-28T06:07:25.474Z,100.00
2022-10-28T06:10:31.440Z,100.00
2022-10-28T06:13:36.233Z,100.00
2022-10-28T06:16:43.842Z,100.00
2022-10-28T06:19:49.994Z,100.00
2022-10-28T06:22:56.449Z,100.00
2022-10-28T06:26:04.261Z,100.00
2022-10-28T06:29:10.934Z,100.00
2022-10-28T06:32:18.502Z,100.00
2022-10-28T06:35:24.758Z,100.00
2022-10-28T06:38:31.228Z,100.00
2022-10-28T06:41:37.491Z,100.00
2022-10-28T06:44:43.815Z,100.00
2022-10-28T06:47:56.666Z,100.00
2022-10-28T06:51:02.623Z,100.00
2022-10-28T06:54:09.120Z,100.00
2022-10-28T06:57:15.680Z,100.00
2022-10-28T07:00:22.292Z,100.00
2022-10-28T07:03:29.638Z,100.00
2022-10-28T07:06:35.624Z,98.42
2022-10-28T07:09:45.143Z,98.59
2022-10-28T07:12:53.802Z,98.92
2022-10-28T07:16:01.940Z,100.00
2022-10-28T07:19:09.330Z,96.39
2022-10-28T07:22:15.406Z,97.44
2022-10-28T07:25:21.683Z,95.65
2022-10-28T07:28:29.015Z,89.49
2022-10-28T07:31:35.440Z,90.43
2022-10-28T07:34:43.164Z,87.38
2022-10-28T07:37:48.915Z,88.46
2022-10-28T07:40:55.178Z,86.37
2022-10-28T07:44:01.354Z,86.76
2022-10-28T07:47:07.650Z,85.71
2022-10-28T07:50:15.502Z,85.38
2022-10-28T07:53:24.819Z,84.96
2022-10-28T07:56:34.076Z,79.31
2022-10-28T07:59:40.240Z,80.83
2022-10-28T08:02:46.350Z,79.07
2022-10-28T08:06:01.382Z,80.39
2022-10-28T08:09:07.372Z,80.19
2022-10-28T08:12:15.697Z,79.86
2022-10-28T08:15:23.880Z,78.28
2022-10-28T08:18:30.061Z,75.23
2022-10-28T08:21:37.894Z,72.51
2022-10-28T08:24:43.965Z,73.00
2022-10-28T08:27:50.134Z,71.28
2022-10-28T08:31:09.801Z,70.74
2022-10-28T08:34:15.891Z,71.02
2022-10-28T08:37:23.409Z,66.85
2022-10-28T08:40:35.657Z,67.45
2022-10-28T08:44:00.982Z,66.63
2022-10-28T08:47:17.087Z,65.12
2022-10-28T08:50:25.934Z,64.07
2022-10-28T08:53:40.638Z,62.80
2022-10-28T08:56:48.877Z,62.61
2022-10-28T08:59:56.054Z,62.92
2022-10-28T09:03:18.028Z,62.52
2022-10-28T09:06:24.251Z,59.84
2022-10-28T09:09:32.557Z,60.32
2022-10-28T09:12:44.639Z,60.81
2022-10-28T09:15:59.725Z,58.54
2022-10-28T09:19:15.925Z,58.77
2022-10-28T09:22:28.576Z,58.60
2022-10-28T09:25:48.930Z,58.23
2022-10-28T09:29:04.276Z,57.63
2022-10-28T09:32:23.997Z,57.11
2022-10-28T09:35:34.314Z,55.99
2022-10-28T09:38:41.357Z,54.90
2022-10-28T09:41:50.614Z,56.15
2022-10-28T09:45:01.200Z,54.85
2022-10-28T09:48:15.874Z,53.80
2022-10-28T09:51:30.092Z,52.81
2022-10-28T09:54:41.065Z,53.65
2022-10-28T09:57:48.692Z,52.58
2022-10-28T10:00:55.104Z,53.32
2022-10-28T10:04:02.125Z,52.72
2022-10-28T10:07:12.522Z,53.15
2022-10-28T10:10:24.674Z,51.37
2022-10-28T10:13:38.056Z,50.87
2022-10-28T10:16:48.882Z,49.74
2022-10-28T10:20:03.988Z,49.92
2022-10-28T10:23:24.138Z,49.79
2022-10-28T10:26:34.730Z,49.42
2022-10-28T10:29:46.734Z,49.31
2022-10-28T10:32:53.859Z,49.83
2022-10-28T10:36:04.070Z,49.24
2022-10-28T10:39:23.170Z,49.42
2022-10-28T10:42:29.174Z,49.13
2022-10-28T10:45:36.824Z,49.01
2022-10-28T10:48:43.773Z,48.35
2022-10-28T10:51:53.529Z,46.61
2022-10-28T10:55:08.103Z,46.58
2022-10-28T10:58:20.058Z,46.70
2022-10-28T11:01:30.348Z,46.63
2022-10-28T11:04:36.942Z,44.60
2022-10-28T11:07:49.665Z,44.33
2022-10-28T11:11:14.380Z,44.17
2022-10-28T11:14:25.617Z,44.37
2022-10-28T11:17:35.407Z,43.13
2022-10-28T11:20:51.712Z,43.79
2022-10-28T11:24:11.445Z,43.23
2022-10-28T11:27:28.751Z,42.18
2022-10-28T11:30:47.045Z,42.63
2022-10-28T11:34:14.595Z,43.31
2022-10-28T11:37:28.610Z,42.65
2022-10-28T11:40:41.861Z,43.38
2022-10-28T11:43:55.004Z,43.12
2022-10-28T11:47:22.810Z,42.96
2022-10-28T11:50:59.510Z,42.14
2022-10-28T11:54:45.111Z,41.57
2022-10-28T11:58:06.124Z,42.64
2022-10-28T12:01:26.275Z,40.12
2022-10-28T12:04:49.967Z,40.48
2022-10-28T12:08:09.879Z,39.82
2022-10-28T12:11:29.850Z,39.00
2022-10-28T12:14:48.573Z,39.38
2022-10-28T12:18:06.062Z,38.43
2022-10-28T12:21:18.177Z,38.90
2022-10-28T12:24:27.625Z,37.12
2022-10-28T12:27:39.205Z,37.90
2022-10-28T12:30:47.596Z,38.43
2022-10-28T12:33:56.681Z,36.51
2022-10-28T12:37:08.421Z,36.27
2022-10-28T12:40:20.817Z,35.88
2022-10-28T12:43:33.773Z,34.96
2022-10-28T12:50:07.681Z,36.45
2022-10-28T12:53:35.517Z,36.29
2022-10-28T12:56:50.258Z,35.30
2022-10-28T13:00:03.161Z,35.25
2022-10-28T13:03:14.100Z,34.54
2022-10-28T13:06:52.841Z,34.41
2022-10-28T13:10:12.254Z,34.49
2022-10-28T13:13:37.054Z,33.31
2022-10-28T13:17:02.319Z,34.68
2022-10-28T13:20:18.637Z,34.19
2022-10-28T13:23:31.187Z,33.79
2022-10-28T13:26:42.497Z,33.21
2022-10-28T13:29:53.660Z,33.58
2022-10-28T13:33:07.365Z,33.88
2022-10-28T13:36:19.821Z,34.53
2022-10-28T13:39:40.562Z,32.61
2022-10-28T13:42:48.849Z,33.75
2022-10-28T13:45:57.592Z,33.97
2022-10-28T13:49:23.799Z,34.49
2022-10-28T13:52:29.774Z,36.25
2022-10-28T13:55:45.199Z,36.22
2022-10-28T13:58:54.670Z,38.28
2022-10-28T14:02:35.043Z,39.47
2022-10-28T14:05:57.394Z,41.02
2022-10-28T14:09:04.526Z,40.88
2022-10-28T14:12:19.002Z,40.28
2022-10-28T14:15:31.373Z,39.41
2022-10-28T14:18:44.365Z,39.84
2022-10-28T14:22:00.718Z,39.92
2022-10-28T14:25:54.826Z,40.78
2022-10-28T14:29:01.371Z,35.51
2022-10-28T14:32:43.849Z,35.95
2022-10-28T14:36:01.130Z,32.56
2022-10-28T14:39:33.558Z,33.53
2022-10-28T14:43:00.410Z,34.02
2022-10-28T14:46:18.034Z,34.70
2022-10-28T14:49:28.054Z,34.79
2022-10-28T14:52:38.337Z,35.19
2022-10-28T14:55:48.680Z,36.08
2022-10-28T14:58:58.772Z,37.33
2022-10-28T15:02:15.641Z,38.85
2022-10-28T15:05:24.918Z,41.86
2022-10-28T15:08:32.090Z,41.62
2022-10-28T15:11:38.111Z,38.67
2022-10-28T15:14:49.264Z,37.32
2022-10-28T15:17:56.438Z,37.41
2022-10-28T15:21:09.479Z,38.45
2022-10-28T15:24:17.121Z,38.45
2022-10-28T15:27:23.685Z,38.85
2022-10-28T15:30:30.091Z,39.20
2022-10-28T15:33:40.698Z,41.31
2022-10-28T15:36:50.482Z,44.39
2022-10-28T15:40:20.956Z,45.66
2022-10-28T15:43:28.896Z,46.17
2022-10-28T15:46:35.772Z,46.71
2022-10-28T15:49:42.636Z,47.21
2022-10-28T15:52:52.516Z,47.79
2022-10-28T15:56:20.109Z,48.72
2022-10-28T15:59:27.054Z,49.64
2022-10-28T16:02:45.980Z,50.94
2022-10-28T16:05:53.350Z,50.56
2022-10-28T16:09:02.822Z,49.26
2022-10-28T16:12:16.720Z,50.30
2022-10-28T16:15:22.830Z,51.38
2022-10-28T16:18:31.017Z,50.63
2022-10-28T16:21:39.114Z,52.06
2022-10-28T16:24:45.631Z,52.48
2022-10-28T16:27:54.958Z,52.58
2022-10-28T16:31:03.010Z,54.00
2022-10-28T16:34:15.030Z,51.96
2022-10-28T16:37:24.490Z,52.58
2022-10-28T16:40:50.505Z,54.16
2022-10-28T16:43:58.743Z,58.39
2022-10-28T16:47:12.121Z,57.80
2022-10-28T16:50:18.377Z,57.97
2022-10-28T16:53:24.908Z,59.13
2022-10-28T16:56:31.277Z,57.86
2022-10-28T16:59:38.960Z,56.84
2022-10-28T17:02:46.970Z,56.62
2022-10-28T17:05:52.865Z,54.85
2022-10-28T17:09:03.576Z,55.75
2022-10-28T17:12:14.439Z,57.82
2022-10-28T17:15:21.849Z,61.45
2022-10-28T17:18:27.648Z,56.02
2022-10-28T17:21:33.781Z,59.08
2022-10-28T17:24:40.418Z,62.17
2022-10-28T17:27:48.556Z,61.79
2022-10-28T17:30:55.757Z,65.05
2022-10-28T17:34:02.084Z,66.97
2022-10-28T17:37:08.804Z,68.77
2022-10-28T17:40:15.395Z,70.50
2022-10-28T17:43:21.551Z,70.85
2022-10-28T17:46:29.265Z,71.12
2022-10-28T17:49:36.613Z,70.83
2022-10-28T17:52:43.016Z,72.18
2022-10-28T17:55:57.121Z,72.04
2022-10-28T17:59:03.190Z,73.85
2022-10-28T18:02:12.809Z,76.59
2022-10-28T18:05:19.399Z,78.18
2022-10-28T18:08:25.846Z,78.09
2022-10-28T18:11:34.121Z,76.79
2022-10-28T18:14:40.533Z,79.92
2022-10-28T18:17:51.652Z,80.06
2022-10-28T18:20:57.811Z,81.60
2022-10-28T18:24:07.080Z,82.57
2022-10-28T18:27:13.027Z,81.11
2022-10-28T18:30:19.325Z,81.08
2022-10-28T18:33:26.842Z,83.68
2022-10-28T18:36:35.765Z,85.13
2022-10-28T18:39:41.719Z,86.88
2022-10-28T18:42:48.045Z,89.25
2022-10-28T18:45:54.499Z,86.48
2022-10-28T18:49:01.990Z,85.90
2022-10-28T18:52:08.245Z,83.29
2022-10-28T18:55:14.264Z,85.41
2022-10-28T18:58:20.638Z,87.78
2022-10-28T19:01:28.298Z,87.46
2022-10-28T19:04:36.405Z,88.19
2022-10-28T19:07:42.675Z,89.74
2022-10-28T19:10:49.821Z,87.94
2022-10-28T19:13:56.226Z,89.45
2022-10-28T19:17:03.322Z,91.67
2022-10-28T19:20:12.134Z,88.16
2022-10-28T19:23:18.404Z,90.58
2022-10-28T19:26:24.867Z,91.35
2022-10-28T19:29:31.009Z,93.02
2022-10-28T19:32:38.937Z,94.21
2022-10-28T19:35:46.441Z,94.18
2022-10-28T19:38:53.958Z,93.73
2022-10-28T19:42:00.137Z,93.64
2022-10-28T19:45:07.502Z,93.03
2022-10-28T19:48:13.822Z,95.40
2022-10-28T19:51:23.097Z,93.73
2022-10-28T19:54:29.470Z,91.63
2022-10-28T19:57:35.728Z,91.37
2022-10-28T20:00:41.783Z,91.23
2022-10-28T20:03:49.344Z,90.19
2022-10-28T20:06:57.741Z,90.67
2022-10-28T20:10:03.673Z,92.74
2022-10-28T20:13:10.304Z,92.79
2022-10-28T20:16:17.943Z,91.76
2022-10-28T20:19:24.020Z,93.51
2022-10-28T20:22:31.718Z,95.79
2022-10-28T20:25:37.740Z,97.05
2022-10-28T20:28:44.285Z,98.51
2022-10-28T20:31:50.357Z,95.50
2022-10-28T20:34:57.193Z,96.79
2022-10-28T20:38:04.753Z,100.00
2022-10-28T20:41:11.985Z,98.80
2022-10-28T20:44:18.621Z,100.00
2022-10-28T20:47:25.130Z,100.00
2022-10-28T20:50:31.282Z,100.00
2022-10-28T20:53:38.988Z,100.00
2022-10-28T20:56:45.083Z,100.00
2022-10-28T20:59:51.782Z,100.00
2022-10-28T21:02:58.365Z,100.00
2022-10-28T21:06:05.409Z,100.00
2022-10-28T21:09:12.834Z,100.00
2022-10-28T21:12:18.727Z,100.00
2022-10-28T21:15:24.992Z,100.00
2022-10-28T21:18:31.377Z,100.00
2022-10-28T21:21:37.629Z,100.00
2022-10-28T21:24:45.257Z,100.00
2022-10-28T21:27:51.332Z,100.00
2022-10-28T21:31:01.617Z,98.82
2022-10-28T21:34:08.552Z,97.73
2022-10-28T21:37:14.837Z,96.28
2022-10-28T21:40:22.618Z,97.33
2022-10-28T21:43:29.880Z,100.00
2022-10-28T21:46:36.006Z,100.00
2022-10-28T21:49:42.550Z,100.00
2022-10-28T21:52:49.064Z,100.00
2022-10-28T21:56:03.988Z,100.00
2022-10-28T21:59:10.433Z,100.00
2022-10-28T22:02:17.089Z,100.00
2022-10-28T22:05:23.289Z,100.00
2022-10-28T22:08:29.919Z,100.00
2022-10-28T22:11:37.487Z,100.00
2022-10-28T22:14:43.974Z,100.00
2022-10-28T22:17:50.538Z,100.00
2022-10-28T22:20:56.829Z,100.00
2022-10-28T22:24:02.882Z,100.00
2022-10-28T22:27:10.774Z,100.00
2022-10-28T22:30:16.944Z,100.00
2022-10-28T22:33:23.502Z,100.00
2022-10-28T22:36:31.102Z,100.00
2022-10-28T22:39:37.120Z,100.00
2022-10-28T22:42:44.941Z,100.00
2022-10-28T22:45:50.961Z,100.00
2022-10-28T22:48:57.830Z,100.00
2022-10-28T22:52:04.378Z,100.00
2022-10-28T22:55:11.489Z,100.00
2022-10-28T22:58:19.131Z,100.00
2022-10-28T23:01:26.660Z,100.00
2022-10-28T23:04:33.018Z,100.00
2022-10-28T23:07:39.247Z,100.00
2022-10-28T23:10:45.151Z,100.00
2022-10-28T23:13:53.918Z,100.00
2022-10-28T23:17:00.062Z,100.00
2022-10-28T23:20:07.121Z,100.00
2022-10-28T23:23:13.187Z,100.00
2022-10-28T23:26:19.543Z,100.00
2022-10-28T23:29:27.429Z,100.00
2022-10-28T23:32:33.366Z,100.00
2022-10-28T23:35:39.222Z,100.00
2022-10-28T23:38:45.972Z,100.00
2022-10-28T23:41:52.017Z,100.00
2022-10-28T23:44:59.661Z,100.00
2022-10-28T23:48:05.862Z,100.00
2022-10-28T23:51:12.000Z,100.00
2022-10-28T23:54:18.253Z,100.00
2022-10-28T23:57:25.092Z,100.00
